• Join FlightAware (Why Join?)
  • Login
  • US Flag 
09:00PM EDT


 

Airport Tracker/Info


-or-


 

Live Flight TrackerFlight Track Log ✈ N625FT ✈ 02-May-2012 ✈ KMLB - KEVB

Flight Track Log - Related Links

Times and Time Zones

All times are in EDT time to prevent confusion due to time zone crossing. See the N625FT flight status page for this flight to view local times or setup timezone preferences in your user account.

Time Position Orientation Groundspeed Altitude Reporting Facility
EDT Latitude Longitude Course Direction KTS MPH feet Rate Location/Type
05:57PM 28.1677 -80.6667 344° North  Level FlightAware Approximate
05:58PM 28.1965 -80.6763 328° Northwest  Level FlightAware Approximate
05:59PM 28.2210 -80.6938 349° North  Level FlightAware Approximate
06:00PM 28.2499 -80.7000 344° North  Level FlightAware Approximate
06:01PM 28.2788 -80.7093 344° North  Level FlightAware Approximate
06:02PM 28.3077 -80.7187 344° North  Level FlightAware Approximate
06:03PM 28.3366 -80.7280 344° North  Level FlightAware Approximate
06:04PM 28.3655 -80.7374 344° North  Level FlightAware Approximate
06:05PM 28.3944 -80.7468 344° North  Level FlightAware Approximate
06:06PM 28.4233 -80.7561 358° North  Level FlightAware Approximate
06:07PM 28.4509 -80.7570 343° North  Level FlightAware Approximate
06:08PM 28.4797 -80.7668 343° North  Level FlightAware Approximate
06:09PM 28.5085 -80.7766 332° Northwest  Level FlightAware Approximate
06:10PM 28.5349 -80.7925 344° North  Level FlightAware Approximate
06:11PM 28.5638 -80.8018 344° North  Level FlightAware Approximate
06:12PM 28.5927 -80.8112 344° North  Level FlightAware Approximate
06:13PM 28.6180 -80.8195 344° North  Level FlightAware Approximate
06:14PM 28.6432 -80.8277 344° North  Level FlightAware Approximate
06:15PM 28.6684 -80.8359 344° North  Level FlightAware Approximate
06:16PM 28.6937 -80.8441 344° North  Level FlightAware Approximate
06:17PM 28.7189 -80.8523 344° North  Level FlightAware Approximate
06:18PM 28.7442 -80.8606 344° North  Level FlightAware Approximate
06:19PM 28.7694 -80.8688 344° North  Level FlightAware Approximate
06:20PM 28.7946 -80.8771 344° North  Level FlightAware Approximate
06:21PM 28.8199 -80.8853 344° North  Level FlightAware Approximate
06:22PM 28.8451 -80.8935 294° West  Level FlightAware Approximate
06:23PM 28.8550 -80.9192 354° North  Level FlightAware Approximate
06:24PM 28.8811 -80.9225 354° North  Level FlightAware Approximate
06:25PM 28.9072 -80.9258 354° North  Level FlightAware Approximate
06:26PM 28.9332 -80.9291 354° North  Level FlightAware Approximate
06:27PM 28.9593 -80.9324 358° North  Level FlightAware Approximate
06:28PM 28.9855 -80.9333 349° North  Level FlightAware Approximate
06:29PM 29.0113 -80.9390 349° North  Level Estimated
06:30PM 29.0371 -80.9448 349° North  Level Estimated
06:31PM 29.0629 -80.9505 169° South  Level Estimated
06:32PM 29.0371 -80.9448 38° Northeast  Level Estimated
06:33PM 29.0500 -80.9333 293° West  Level FlightAware Approximate
06:34PM 29.0601 -80.9610 113° Southeast  Level Estimated
06:35PM 29.0502 -80.9338 293° West  Level Estimated
06:36PM 29.0601 -80.9610 113° Southeast  Level Estimated
06:37PM 29.0502 -80.9338 293° West  Level Estimated
06:38PM 29.0601 -80.9610 113° Southeast  Level Estimated
06:39PM 29.0500 -80.9333 293° West  Level FlightAware Approximate
06:40PM 29.0600 -80.9606 113° Southeast  Level Estimated
06:41PM 29.0500 -80.9333 293° West  Level FlightAware Approximate
06:42PM 29.0600 -80.9606 293° West  Level Estimated